sensor_id;sensor_type;location;lat;lon;timestamp;P1;durP1;ratioP1;P2;durP2;ratioP2
36709;SDS011;22694;51.040;3.684;2023-03-01T00:01:05;4.55;;;2.85;;
36709;SDS011;22694;51.040;3.684;2023-03-01T00:03:32;4.65;;;2.88;;
36709;SDS011;22694;51.040;3.684;2023-03-01T00:05:59;3.53;;;2.90;;
36709;SDS011;22694;51.040;3.684;2023-03-01T00:08:25;4.20;;;3.15;;
36709;SDS011;22694;51.040;3.684;2023-03-01T00:13:32;4.35;;;3.00;;
36709;SDS011;22694;51.040;3.684;2023-03-01T00:15:59;4.88;;;2.90;;
36709;SDS011;22694;51.040;3.684;2023-03-01T00:18:27;2.75;;;2.40;;
36709;SDS011;22694;51.040;3.684;2023-03-01T00:20:54;3.95;;;2.40;;
36709;SDS011;22694;51.040;3.684;2023-03-01T00:23:21;3.22;;;2.50;;
36709;SDS011;22694;51.040;3.684;2023-03-01T00:25:47;3.88;;;2.92;;
36709;SDS011;22694;51.040;3.684;2023-03-01T00:28:13;3.15;;;2.85;;
36709;SDS011;22694;51.040;3.684;2023-03-01T00:30:39;4.10;;;2.72;;
36709;SDS011;22694;51.040;3.684;2023-03-01T00:33:05;3.30;;;2.70;;
36709;SDS011;22694;51.040;3.684;2023-03-01T00:35:31;4.03;;;2.45;;
36709;SDS011;22694;51.040;3.684;2023-03-01T00:37:58;3.22;;;2.50;;
36709;SDS011;22694;51.040;3.684;2023-03-01T00:40:24;2.92;;;2.42;;
36709;SDS011;22694;51.040;3.684;2023-03-01T00:42:50;3.05;;;2.72;;
36709;SDS011;22694;51.040;3.684;2023-03-01T00:45:16;3.65;;;2.72;;
36709;SDS011;22694;51.040;3.684;2023-03-01T00:47:42;3.00;;;2.35;;
36709;SDS011;22694;51.040;3.684;2023-03-01T00:50:08;3.53;;;2.97;;
36709;SDS011;22694;51.040;3.684;2023-03-01T00:52:35;4.38;;;2.72;;
36709;SDS011;22694;51.040;3.684;2023-03-01T00:55:00;2.95;;;2.47;;
36709;SDS011;22694;51.040;3.684;2023-03-01T00:57:26;3.17;;;2.25;;
36709;SDS011;22694;51.040;3.684;2023-03-01T00:59:52;3.13;;;2.55;;
36709;SDS011;22694;51.040;3.684;2023-03-01T01:02:18;3.53;;;2.75;;
36709;SDS011;22694;51.040;3.684;2023-03-01T01:04:44;3.58;;;2.40;;
36709;SDS011;22694;51.040;3.684;2023-03-01T01:07:10;3.15;;;2.58;;
36709;SDS011;22694;51.040;3.684;2023-03-01T01:09:36;2.78;;;2.45;;
36709;SDS011;22694;51.040;3.684;2023-03-01T01:12:02;3.55;;;2.63;;
36709;SDS011;22694;51.040;3.684;2023-03-01T01:14:28;2.85;;;2.25;;
36709;SDS011;22694;51.040;3.684;2023-03-01T01:16:54;2.75;;;2.38;;
36709;SDS011;22694;51.040;3.684;2023-03-01T01:19:20;3.40;;;2.55;;
36709;SDS011;22694;51.040;3.684;2023-03-01T01:21:46;2.35;;;2.15;;
36709;SDS011;22694;51.040;3.684;2023-03-01T01:24:13;3.40;;;2.50;;
36709;SDS011;22694;51.040;3.684;2023-03-01T01:26:39;4.03;;;2.70;;
36709;SDS011;22694;51.040;3.684;2023-03-01T01:29:05;4.03;;;2.45;;
36709;SDS011;22694;51.040;3.684;2023-03-01T01:31:31;3.22;;;2.33;;
36709;SDS011;22694;51.040;3.684;2023-03-01T01:33:59;2.78;;;2.22;;
36709;SDS011;22694;51.040;3.684;2023-03-01T01:36:26;2.63;;;2.30;;
36709;SDS011;22694;51.040;3.684;2023-03-01T01:38:51;2.40;;;2.20;;
36709;SDS011;22694;51.040;3.684;2023-03-01T01:41:17;3.03;;;2.10;;
36709;SDS011;22694;51.040;3.684;2023-03-01T01:43:45;2.17;;;1.92;;
36709;SDS011;22694;51.040;3.684;2023-03-01T01:48:46;3.00;;;2.45;;
36709;SDS011;22694;51.040;3.684;2023-03-01T01:51:18;2.80;;;2.30;;
36709;SDS011;22694;51.040;3.684;2023-03-01T01:53:46;2.67;;;2.27;;
36709;SDS011;22694;51.040;3.684;2023-03-01T01:56:15;2.13;;;1.92;;
36709;SDS011;22694;51.040;3.684;2023-03-01T01:58:43;3.50;;;1.80;;
36709;SDS011;22694;51.040;3.684;2023-03-01T02:01:10;4.30;;;2.20;;
36709;SDS011;22694;51.040;3.684;2023-03-01T02:03:37;2.67;;;2.15;;
36709;SDS011;22694;51.040;3.684;2023-03-01T02:06:18;2.88;;;2.45;;
36709;SDS011;22694;51.040;3.684;2023-03-01T02:09:17;3.40;;;2.10;;
36709;SDS011;22694;51.040;3.684;2023-03-01T02:11:46;2.78;;;2.13;;
36709;SDS011;22694;51.040;3.684;2023-03-01T02:14:12;2.10;;;1.90;;
36709;SDS011;22694;51.040;3.684;2023-03-01T02:16:39;3.03;;;2.10;;
36709;SDS011;22694;51.040;3.684;2023-03-01T02:19:06;3.25;;;2.08;;
36709;SDS011;22694;51.040;3.684;2023-03-01T02:24:10;2.58;;;2.10;;
36709;SDS011;22694;51.040;3.684;2023-03-01T02:27:04;3.20;;;1.92;;
36709;SDS011;22694;51.040;3.684;2023-03-01T02:29:30;3.63;;;2.22;;
36709;SDS011;22694;51.040;3.684;2023-03-01T02:31:56;2.63;;;2.05;;
36709;SDS011;22694;51.040;3.684;2023-03-01T02:34:25;2.45;;;2.25;;
36709;SDS011;22694;51.040;3.684;2023-03-01T02:37:01;2.55;;;2.00;;
36709;SDS011;22694;51.040;3.684;2023-03-01T02:39:40;2.42;;;2.00;;
36709;SDS011;22694;51.040;3.684;2023-03-01T02:42:13;2.70;;;2.25;;
36709;SDS011;22694;51.040;3.684;2023-03-01T02:44:41;2.47;;;2.00;;
36709;SDS011;22694;51.040;3.684;2023-03-01T02:47:07;2.15;;;1.95;;
36709;SDS011;22694;51.040;3.684;2023-03-01T02:49:34;2.20;;;2.00;;
36709;SDS011;22694;51.040;3.684;2023-03-01T02:52:05;2.10;;;1.90;;
36709;SDS011;22694;51.040;3.684;2023-03-01T02:54:47;5.43;;;2.30;;
36709;SDS011;22694;51.040;3.684;2023-03-01T02:57:18;2.67;;;1.98;;
36709;SDS011;22694;51.040;3.684;2023-03-01T02:59:44;4.10;;;2.33;;
36709;SDS011;22694;51.040;3.684;2023-03-01T03:02:19;2.53;;;2.15;;
36709;SDS011;22694;51.040;3.684;2023-03-01T03:05:03;2.30;;;2.10;;
36709;SDS011;22694;51.040;3.684;2023-03-01T03:07:40;2.55;;;1.98;;
36709;SDS011;22694;51.040;3.684;2023-03-01T03:10:09;2.20;;;1.95;;
36709;SDS011;22694;51.040;3.684;2023-03-01T03:12:38;2.67;;;2.45;;
36709;SDS011;22694;51.040;3.684;2023-03-01T03:15:05;2.35;;;2.00;;
36709;SDS011;22694;51.040;3.684;2023-03-01T03:17:34;2.63;;;2.20;;
36709;SDS011;22694;51.040;3.684;2023-03-01T03:20:02;2.67;;;2.10;;
36709;SDS011;22694;51.040;3.684;2023-03-01T03:22:30;2.60;;;2.30;;
36709;SDS011;22694;51.040;3.684;2023-03-01T03:24:56;2.88;;;2.58;;
36709;SDS011;22694;51.040;3.684;2023-03-01T03:27:22;2.28;;;1.95;;
36709;SDS011;22694;51.040;3.684;2023-03-01T03:29:47;3.10;;;2.17;;
36709;SDS011;22694;51.040;3.684;2023-03-01T03:32:13;2.75;;;2.47;;
36709;SDS011;22694;51.040;3.684;2023-03-01T03:34:38;2.90;;;2.30;;
36709;SDS011;22694;51.040;3.684;2023-03-01T03:37:04;2.78;;;2.22;;
36709;SDS011;22694;51.040;3.684;2023-03-01T03:39:50;2.45;;;2.25;;
36709;SDS011;22694;51.040;3.684;2023-03-01T03:42:19;3.97;;;2.90;;
36709;SDS011;22694;51.040;3.684;2023-03-01T03:44:46;2.65;;;2.45;;
36709;SDS011;22694;51.040;3.684;2023-03-01T03:47:12;2.70;;;2.20;;
36709;SDS011;22694;51.040;3.684;2023-03-01T03:49:38;3.03;;;2.45;;
36709;SDS011;22694;51.040;3.684;2023-03-01T03:52:03;3.08;;;2.60;;
36709;SDS011;22694;51.040;3.684;2023-03-01T03:54:29;3.05;;;2.60;;
36709;SDS011;22694;51.040;3.684;2023-03-01T03:56:55;3.95;;;2.83;;
36709;SDS011;22694;51.040;3.684;2023-03-01T03:59:20;2.88;;;2.60;;
36709;SDS011;22694;51.040;3.684;2023-03-01T04:01:46;4.53;;;3.35;;
36709;SDS011;22694;51.040;3.684;2023-03-01T04:04:11;2.70;;;2.50;;
36709;SDS011;22694;51.040;3.684;2023-03-01T04:06:38;3.50;;;2.78;;
36709;SDS011;22694;51.040;3.684;2023-03-01T04:09:03;2.97;;;2.67;;
36709;SDS011;22694;51.040;3.684;2023-03-01T04:11:29;3.33;;;2.92;;
36709;SDS011;22694;51.040;3.684;2023-03-01T04:13:57;4.05;;;3.40;;
36709;SDS011;22694;51.040;3.684;2023-03-01T04:16:24;3.90;;;3.17;;
36709;SDS011;22694;51.040;3.684;2023-03-01T04:18:50;3.38;;;2.97;;
36709;SDS011;22694;51.040;3.684;2023-03-01T04:21:17;3.55;;;3.15;;
36709;SDS011;22694;51.040;3.684;2023-03-01T04:23:45;3.55;;;3.25;;
36709;SDS011;22694;51.040;3.684;2023-03-01T04:26:10;3.47;;;2.95;;
36709;SDS011;22694;51.040;3.684;2023-03-01T04:28:37;3.65;;;3.25;;
36709;SDS011;22694;51.040;3.684;2023-03-01T04:31:12;4.03;;;2.90;;
36709;SDS011;22694;51.040;3.684;2023-03-01T04:36:19;3.70;;;3.40;;
36709;SDS011;22694;51.040;3.684;2023-03-01T04:38:47;4.85;;;3.58;;
36709;SDS011;22694;51.040;3.684;2023-03-01T04:41:14;3.78;;;3.47;;
36709;SDS011;22694;51.040;3.684;2023-03-01T04:43:41;3.92;;;3.53;;
36709;SDS011;22694;51.040;3.684;2023-03-01T04:46:07;4.55;;;3.47;;
36709;SDS011;22694;51.040;3.684;2023-03-01T04:48:36;3.95;;;3.60;;
36709;SDS011;22694;51.040;3.684;2023-03-01T04:51:03;4.18;;;3.50;;
36709;SDS011;22694;51.040;3.684;2023-03-01T04:53:29;5.05;;;3.83;;
36709;SDS011;22694;51.040;3.684;2023-03-01T04:55:55;4.07;;;2.92;;
36709;SDS011;22694;51.040;3.684;2023-03-01T04:58:30;4.40;;;3.50;;
36709;SDS011;22694;51.040;3.684;2023-03-01T05:00:56;3.38;;;3.08;;
36709;SDS011;22694;51.040;3.684;2023-03-01T05:03:22;5.07;;;3.53;;
36709;SDS011;22694;51.040;3.684;2023-03-01T05:05:48;5.38;;;3.60;;
36709;SDS011;22694;51.040;3.684;2023-03-01T05:08:15;3.97;;;3.58;;
36709;SDS011;22694;51.040;3.684;2023-03-01T05:10:46;3.97;;;3.58;;
36709;SDS011;22694;51.040;3.684;2023-03-01T05:13:14;5.20;;;3.53;;
36709;SDS011;22694;51.040;3.684;2023-03-01T05:15:46;5.50;;;3.63;;
36709;SDS011;22694;51.040;3.684;2023-03-01T05:18:13;4.18;;;3.78;;
36709;SDS011;22694;51.040;3.684;2023-03-01T05:20:38;4.38;;;3.63;;
36709;SDS011;22694;51.040;3.684;2023-03-01T05:23:04;4.38;;;3.58;;
36709;SDS011;22694;51.040;3.684;2023-03-01T05:25:31;4.43;;;3.60;;
36709;SDS011;22694;51.040;3.684;2023-03-01T05:28:01;3.60;;;3.30;;
36709;SDS011;22694;51.040;3.684;2023-03-01T05:30:30;3.97;;;3.15;;
36709;SDS011;22694;51.040;3.684;2023-03-01T05:32:59;5.95;;;3.40;;
36709;SDS011;22694;51.040;3.684;2023-03-01T05:35:24;4.35;;;3.95;;
36709;SDS011;22694;51.040;3.684;2023-03-01T05:37:51;4.03;;;3.30;;
36709;SDS011;22694;51.040;3.684;2023-03-01T05:40:18;3.90;;;3.13;;
36709;SDS011;22694;51.040;3.684;2023-03-01T05:42:46;4.18;;;3.63;;
36709;SDS011;22694;51.040;3.684;2023-03-01T05:45:18;3.78;;;3.30;;
36709;SDS011;22694;51.040;3.684;2023-03-01T05:47:44;4.53;;;3.63;;
36709;SDS011;22694;51.040;3.684;2023-03-01T05:52:44;4.43;;;3.50;;
36709;SDS011;22694;51.040;3.684;2023-03-01T05:55:11;4.28;;;3.15;;
36709;SDS011;22694;51.040;3.684;2023-03-01T05:57:37;5.05;;;3.47;;
36709;SDS011;22694;51.040;3.684;2023-03-01T06:00:03;5.53;;;3.65;;
36709;SDS011;22694;51.040;3.684;2023-03-01T06:02:28;3.63;;;3.28;;
36709;SDS011;22694;51.040;3.684;2023-03-01T06:04:54;3.83;;;3.45;;
36709;SDS011;22694;51.040;3.684;2023-03-01T06:07:20;3.70;;;3.40;;
36709;SDS011;22694;51.040;3.684;2023-03-01T06:09:46;3.67;;;3.38;;
36709;SDS011;22694;51.040;3.684;2023-03-01T06:12:12;5.25;;;3.78;;
36709;SDS011;22694;51.040;3.684;2023-03-01T06:14:37;3.42;;;3.13;;
36709;SDS011;22694;51.040;3.684;2023-03-01T06:17:03;4.57;;;3.10;;
36709;SDS011;22694;51.040;3.684;2023-03-01T06:19:28;3.47;;;3.17;;
36709;SDS011;22694;51.040;3.684;2023-03-01T06:21:54;3.08;;;2.78;;
36709;SDS011;22694;51.040;3.684;2023-03-01T06:24:20;4.00;;;3.47;;
36709;SDS011;22694;51.040;3.684;2023-03-01T06:26:45;4.32;;;3.33;;
36709;SDS011;22694;51.040;3.684;2023-03-01T06:29:11;3.78;;;3.22;;
36709;SDS011;22694;51.040;3.684;2023-03-01T06:31:36;3.40;;;3.10;;
36709;SDS011;22694;51.040;3.684;2023-03-01T06:34:02;3.75;;;3.42;;
36709;SDS011;22694;51.040;3.684;2023-03-01T06:36:28;3.30;;;2.83;;
36709;SDS011;22694;51.040;3.684;2023-03-01T06:38:53;3.65;;;3.08;;
36709;SDS011;22694;51.040;3.684;2023-03-01T06:41:19;3.72;;;3.28;;
36709;SDS011;22694;51.040;3.684;2023-03-01T06:43:44;3.40;;;3.10;;
36709;SDS011;22694;51.040;3.684;2023-03-01T06:46:10;3.05;;;2.85;;
36709;SDS011;22694;51.040;3.684;2023-03-01T06:48:36;3.28;;;2.97;;
36709;SDS011;22694;51.040;3.684;2023-03-01T06:51:01;3.65;;;3.28;;
36709;SDS011;22694;51.040;3.684;2023-03-01T06:53:28;3.70;;;3.40;;
36709;SDS011;22694;51.040;3.684;2023-03-01T06:55:57;5.03;;;3.15;;
36709;SDS011;22694;51.040;3.684;2023-03-01T06:58:24;3.53;;;3.22;;
36709;SDS011;22694;51.040;3.684;2023-03-01T07:00:49;3.90;;;3.08;;
36709;SDS011;22694;51.040;3.684;2023-03-01T07:03:15;4.13;;;3.05;;
36709;SDS011;22694;51.040;3.684;2023-03-01T07:05:41;3.20;;;2.90;;
36709;SDS011;22694;51.040;3.684;2023-03-01T07:08:07;3.40;;;3.10;;
36709;SDS011;22694;51.040;3.684;2023-03-01T07:10:32;3.35;;;3.05;;
36709;SDS011;22694;51.040;3.684;2023-03-01T07:12:58;3.10;;;2.80;;
36709;SDS011;22694;51.040;3.684;2023-03-01T07:15:24;3.92;;;2.88;;
36709;SDS011;22694;51.040;3.684;2023-03-01T07:17:50;3.33;;;3.03;;
36709;SDS011;22694;51.040;3.684;2023-03-01T07:20:17;3.22;;;2.92;;
36709;SDS011;22694;51.040;3.684;2023-03-01T07:22:44;3.65;;;3.03;;
36709;SDS011;22694;51.040;3.684;2023-03-01T07:25:09;3.05;;;2.75;;
36709;SDS011;22694;51.040;3.684;2023-03-01T07:27:35;3.60;;;3.25;;
36709;SDS011;22694;51.040;3.684;2023-03-01T07:30:02;3.35;;;3.00;;
36709;SDS011;22694;51.040;3.684;2023-03-01T07:32:28;3.33;;;2.22;;
36709;SDS011;22694;51.040;3.684;2023-03-01T07:34:53;2.30;;;2.10;;
36709;SDS011;22694;51.040;3.684;2023-03-01T07:37:19;3.42;;;2.65;;
36709;SDS011;22694;51.040;3.684;2023-03-01T07:39:45;3.85;;;2.50;;
36709;SDS011;22694;51.040;3.684;2023-03-01T07:42:10;3.30;;;2.70;;
36709;SDS011;22694;51.040;3.684;2023-03-01T07:44:36;4.38;;;2.88;;
36709;SDS011;22694;51.040;3.684;2023-03-01T07:47:03;3.20;;;2.83;;
36709;SDS011;22694;51.040;3.684;2023-03-01T07:49:29;4.25;;;2.40;;
36709;SDS011;22694;51.040;3.684;2023-03-01T07:51:54;2.85;;;2.40;;
36709;SDS011;22694;51.040;3.684;2023-03-01T07:54:20;3.67;;;3.03;;
36709;SDS011;22694;51.040;3.684;2023-03-01T07:56:46;3.33;;;2.72;;
36709;SDS011;22694;51.040;3.684;2023-03-01T07:59:12;3.38;;;2.50;;
36709;SDS011;22694;51.040;3.684;2023-03-01T08:01:37;3.78;;;2.75;;
36709;SDS011;22694;51.040;3.684;2023-03-01T08:04:03;4.68;;;2.95;;
36709;SDS011;22694;51.040;3.684;2023-03-01T08:06:33;3.15;;;2.85;;
36709;SDS011;22694;51.040;3.684;2023-03-01T08:09:00;3.47;;;2.70;;
36709;SDS011;22694;51.040;3.684;2023-03-01T08:11:25;3.75;;;2.85;;
36709;SDS011;22694;51.040;3.684;2023-03-01T08:13:53;3.85;;;3.00;;
36709;SDS011;22694;51.040;3.684;2023-03-01T08:16:19;3.30;;;2.70;;
36709;SDS011;22694;51.040;3.684;2023-03-01T08:18:45;3.50;;;3.03;;
36709;SDS011;22694;51.040;3.684;2023-03-01T08:21:12;3.00;;;2.70;;
36709;SDS011;22694;51.040;3.684;2023-03-01T08:23:40;3.63;;;3.00;;
36709;SDS011;22694;51.040;3.684;2023-03-01T08:26:24;3.53;;;2.90;;
36709;SDS011;22694;51.040;3.684;2023-03-01T08:28:50;3.88;;;2.95;;
36709;SDS011;22694;51.040;3.684;2023-03-01T08:31:35;5.25;;;2.92;;
36709;SDS011;22694;51.040;3.684;2023-03-01T08:34:03;3.47;;;2.80;;
36709;SDS011;22694;51.040;3.684;2023-03-01T08:36:32;3.30;;;2.85;;
36709;SDS011;22694;51.040;3.684;2023-03-01T08:39:00;3.83;;;3.00;;
36709;SDS011;22694;51.040;3.684;2023-03-01T08:41:26;3.03;;;2.72;;
36709;SDS011;22694;51.040;3.684;2023-03-01T08:43:52;4.10;;;3.20;;
36709;SDS011;22694;51.040;3.684;2023-03-01T08:46:23;3.10;;;2.78;;
36709;SDS011;22694;51.040;3.684;2023-03-01T08:48:50;3.65;;;3.00;;
36709;SDS011;22694;51.040;3.684;2023-03-01T08:51:17;3.30;;;2.70;;
36709;SDS011;22694;51.040;3.684;2023-03-01T08:53:44;3.20;;;2.90;;
36709;SDS011;22694;51.040;3.684;2023-03-01T08:56:10;4.68;;;3.00;;
36709;SDS011;22694;51.040;3.684;2023-03-01T08:58:36;3.50;;;3.00;;
36709;SDS011;22694;51.040;3.684;2023-03-01T09:01:12;3.63;;;2.88;;
36709;SDS011;22694;51.040;3.684;2023-03-01T09:03:39;3.13;;;2.80;;
36709;SDS011;22694;51.040;3.684;2023-03-01T09:06:06;3.08;;;2.75;;
36709;SDS011;22694;51.040;3.684;2023-03-01T09:08:39;3.30;;;2.78;;
36709;SDS011;22694;51.040;3.684;2023-03-01T09:11:10;3.17;;;2.88;;
36709;SDS011;22694;51.040;3.684;2023-03-01T09:13:38;3.08;;;2.78;;
36709;SDS011;22694;51.040;3.684;2023-03-01T09:16:05;3.13;;;2.83;;
36709;SDS011;22694;51.040;3.684;2023-03-01T09:18:33;4.65;;;3.22;;
36709;SDS011;22694;51.040;3.684;2023-03-01T09:23:42;3.30;;;3.00;;
36709;SDS011;22694;51.040;3.684;2023-03-01T09:26:11;3.53;;;3.08;;
36709;SDS011;22694;51.040;3.684;2023-03-01T09:28:38;4.70;;;3.40;;
36709;SDS011;22694;51.040;3.684;2023-03-01T09:31:05;3.67;;;3.00;;
36709;SDS011;22694;51.040;3.684;2023-03-01T09:33:32;4.20;;;2.50;;
36709;SDS011;22694;51.040;3.684;2023-03-01T09:35:59;2.10;;;1.50;;
36709;SDS011;22694;51.040;3.684;2023-03-01T09:38:26;2.05;;;1.83;;
36709;SDS011;22694;51.040;3.684;2023-03-01T09:40:51;2.83;;;1.88;;
36709;SDS011;22694;51.040;3.684;2023-03-01T09:46:03;4.10;;;2.88;;
36709;SDS011;22694;51.040;3.684;2023-03-01T09:48:33;2.80;;;2.50;;
36709;SDS011;22694;51.040;3.684;2023-03-01T09:51:15;3.53;;;2.63;;
36709;SDS011;22694;51.040;3.684;2023-03-01T09:53:49;3.25;;;2.85;;
36709;SDS011;22694;51.040;3.684;2023-03-01T09:56:27;3.10;;;2.72;;
36709;SDS011;22694;51.040;3.684;2023-03-01T10:01:41;3.55;;;2.83;;
36709;SDS011;22694;51.040;3.684;2023-03-01T10:09:39;3.10;;;2.45;;
36709;SDS011;22694;51.040;3.684;2023-03-01T10:12:22;3.78;;;2.90;;
36709;SDS011;22694;51.040;3.684;2023-03-01T10:15:12;3.95;;;2.85;;
36709;SDS011;22694;51.040;3.684;2023-03-01T10:20:22;2.88;;;2.63;;
36709;SDS011;22694;51.040;3.684;2023-03-01T10:22:50;3.28;;;2.67;;
36709;SDS011;22694;51.040;3.684;2023-03-01T10:25:23;5.10;;;2.63;;
36709;SDS011;22694;51.040;3.684;2023-03-01T10:28:02;2.75;;;2.47;;
36709;SDS011;22694;51.040;3.684;2023-03-01T10:30:50;3.70;;;2.35;;
36709;SDS011;22694;51.040;3.684;2023-03-01T10:33:24;2.58;;;2.38;;
36709;SDS011;22694;51.040;3.684;2023-03-01T10:35:50;4.70;;;2.65;;
36709;SDS011;22694;51.040;3.684;2023-03-01T10:38:16;3.15;;;1.50;;
36709;SDS011;22694;51.040;3.684;2023-03-01T10:40:53;2.65;;;2.00;;
36709;SDS011;22694;51.040;3.684;2023-03-01T10:43:28;2.28;;;2.08;;
36709;SDS011;22694;51.040;3.684;2023-03-01T10:46:27;2.72;;;2.30;;
36709;SDS011;22694;51.040;3.684;2023-03-01T10:49:12;4.18;;;2.10;;
36709;SDS011;22694;51.040;3.684;2023-03-01T10:51:40;2.38;;;1.90;;
36709;SDS011;22694;51.040;3.684;2023-03-01T10:54:21;9.07;;;2.50;;
36709;SDS011;22694;51.040;3.684;2023-03-01T10:56:54;5.03;;;1.80;;
36709;SDS011;22694;51.040;3.684;2023-03-01T10:59:32;2.15;;;1.95;;
36709;SDS011;22694;51.040;3.684;2023-03-01T11:05:03;3.65;;;2.35;;
36709;SDS011;22694;51.040;3.684;2023-03-01T11:07:57;30.63;;;13.40;;
36709;SDS011;22694;51.040;3.684;2023-03-01T11:10:33;22.83;;;10.57;;
36709;SDS011;22694;51.040;3.684;2023-03-01T11:13:18;8.68;;;4.80;;
36709;SDS011;22694;51.040;3.684;2023-03-01T11:16:05;7.93;;;4.25;;
36709;SDS011;22694;51.040;3.684;2023-03-01T11:18:35;4.63;;;2.95;;
36709;SDS011;22694;51.040;3.684;2023-03-01T11:21:00;4.35;;;3.45;;
36709;SDS011;22694;51.040;3.684;2023-03-01T11:23:27;5.18;;;3.22;;
36709;SDS011;22694;51.040;3.684;2023-03-01T11:25:55;4.07;;;3.33;;
36709;SDS011;22694;51.040;3.684;2023-03-01T11:28:32;6.43;;;3.58;;
36709;SDS011;22694;51.040;3.684;2023-03-01T11:33:49;3.90;;;3.17;;
36709;SDS011;22694;51.040;3.684;2023-03-01T11:44:50;4.15;;;2.88;;
36709;SDS011;22694;51.040;3.684;2023-03-01T12:11:44;7.07;;;4.68;;
36709;SDS011;22694;51.040;3.684;2023-03-01T12:20:23;6.75;;;4.25;;
36709;SDS011;22694;51.040;3.684;2023-03-01T12:26:22;6.15;;;4.22;;
36709;SDS011;22694;51.040;3.684;2023-03-01T12:35:05;5.03;;;3.65;;
36709;SDS011;22694;51.040;3.684;2023-03-01T12:43:10;5.53;;;3.65;;
36709;SDS011;22694;51.040;3.684;2023-03-01T12:51:08;4.70;;;3.17;;
36709;SDS011;22694;51.040;3.684;2023-03-01T12:53:40;3.53;;;2.80;;
36709;SDS011;22694;51.040;3.684;2023-03-01T12:56:11;5.00;;;2.92;;
36709;SDS011;22694;51.040;3.684;2023-03-01T12:58:48;4.43;;;2.55;;
36709;SDS011;22694;51.040;3.684;2023-03-01T13:04:07;3.15;;;2.60;;
36709;SDS011;22694;51.040;3.684;2023-03-01T13:06:53;3.78;;;2.80;;
36709;SDS011;22694;51.040;3.684;2023-03-01T13:12:03;2.90;;;2.58;;
36709;SDS011;22694;51.040;3.684;2023-03-01T13:14:49;5.57;;;2.53;;
36709;SDS011;22694;51.040;3.684;2023-03-01T13:17:32;3.08;;;2.28;;
36709;SDS011;22694;51.040;3.684;2023-03-01T13:20:11;2.80;;;2.22;;
36709;SDS011;22694;51.040;3.684;2023-03-01T13:22:38;3.63;;;2.65;;
36709;SDS011;22694;51.040;3.684;2023-03-01T13:25:15;3.35;;;2.50;;
36709;SDS011;22694;51.040;3.684;2023-03-01T13:27:43;4.50;;;2.58;;
36709;SDS011;22694;51.040;3.684;2023-03-01T13:35:52;2.58;;;2.25;;
36709;SDS011;22694;51.040;3.684;2023-03-01T13:41:09;3.88;;;2.20;;
36709;SDS011;22694;51.040;3.684;2023-03-01T13:43:36;2.42;;;2.22;;
36709;SDS011;22694;51.040;3.684;2023-03-01T13:46:08;3.33;;;2.63;;
36709;SDS011;22694;51.040;3.684;2023-03-01T13:48:47;4.15;;;2.63;;
36709;SDS011;22694;51.040;3.684;2023-03-01T13:51:19;2.75;;;2.30;;
36709;SDS011;22694;51.040;3.684;2023-03-01T13:53:48;3.88;;;2.45;;
36709;SDS011;22694;51.040;3.684;2023-03-01T13:56:21;3.10;;;2.33;;
36709;SDS011;22694;51.040;3.684;2023-03-01T13:59:12;3.00;;;2.38;;
36709;SDS011;22694;51.040;3.684;2023-03-01T14:01:39;3.33;;;2.65;;
36709;SDS011;22694;51.040;3.684;2023-03-01T14:04:19;2.78;;;2.47;;
36709;SDS011;22694;51.040;3.684;2023-03-01T14:06:51;3.33;;;2.70;;
36709;SDS011;22694;51.040;3.684;2023-03-01T14:09:33;3.38;;;2.40;;
36709;SDS011;22694;51.040;3.684;2023-03-01T14:15:02;2.78;;;2.47;;
36709;SDS011;22694;51.040;3.684;2023-03-01T14:19:59;3.30;;;2.25;;
36709;SDS011;22694;51.040;3.684;2023-03-01T14:22:33;3.33;;;2.60;;
36709;SDS011;22694;51.040;3.684;2023-03-01T14:25:16;4.10;;;2.63;;
36709;SDS011;22694;51.040;3.684;2023-03-01T14:28:04;3.13;;;2.60;;
36709;SDS011;22694;51.040;3.684;2023-03-01T14:33:06;3.33;;;2.40;;
36709;SDS011;22694;51.040;3.684;2023-03-01T14:36:05;4.07;;;2.50;;
36709;SDS011;22694;51.040;3.684;2023-03-01T14:41:03;4.15;;;2.15;;
36709;SDS011;22694;51.040;3.684;2023-03-01T14:46:51;3.42;;;2.42;;
36709;SDS011;22694;51.040;3.684;2023-03-01T14:49:21;3.55;;;2.90;;
36709;SDS011;22694;51.040;3.684;2023-03-01T14:52:15;3.92;;;2.80;;
36709;SDS011;22694;51.040;3.684;2023-03-01T14:54:48;3.72;;;2.40;;
36709;SDS011;22694;51.040;3.684;2023-03-01T14:59:44;3.60;;;2.45;;
36709;SDS011;22694;51.040;3.684;2023-03-01T15:02:24;5.88;;;2.60;;
36709;SDS011;22694;51.040;3.684;2023-03-01T15:04:52;2.88;;;2.58;;
36709;SDS011;22694;51.040;3.684;2023-03-01T15:07:21;2.97;;;2.58;;
36709;SDS011;22694;51.040;3.684;2023-03-01T15:09:51;3.45;;;2.50;;
36709;SDS011;22694;51.040;3.684;2023-03-01T15:15:08;3.10;;;2.50;;
36709;SDS011;22694;51.040;3.684;2023-03-01T15:17:56;2.78;;;2.58;;
36709;SDS011;22694;51.040;3.684;2023-03-01T15:20:28;3.10;;;2.50;;
36709;SDS011;22694;51.040;3.684;2023-03-01T15:22:57;3.95;;;2.50;;
36709;SDS011;22694;51.040;3.684;2023-03-01T15:25:25;4.38;;;2.55;;
36709;SDS011;22694;51.040;3.684;2023-03-01T15:27:53;3.88;;;2.47;;
36709;SDS011;22694;51.040;3.684;2023-03-01T15:30:21;4.22;;;2.22;;
36709;SDS011;22694;51.040;3.684;2023-03-01T15:33:15;2.55;;;2.35;;
36709;SDS011;22694;51.040;3.684;2023-03-01T15:35:49;2.45;;;2.25;;
36709;SDS011;22694;51.040;3.684;2023-03-01T15:38:32;3.13;;;2.80;;
36709;SDS011;22694;51.040;3.684;2023-03-01T15:41:03;2.72;;;2.25;;
36709;SDS011;22694;51.040;3.684;2023-03-01T15:43:47;2.45;;;2.25;;
36709;SDS011;22694;51.040;3.684;2023-03-01T15:46:19;3.30;;;2.80;;
36709;SDS011;22694;51.040;3.684;2023-03-01T15:48:54;3.83;;;2.40;;
36709;SDS011;22694;51.040;3.684;2023-03-01T15:51:33;3.38;;;2.53;;
36709;SDS011;22694;51.040;3.684;2023-03-01T15:54:02;2.53;;;2.30;;
36709;SDS011;22694;51.040;3.684;2023-03-01T15:56:40;3.28;;;2.30;;
36709;SDS011;22694;51.040;3.684;2023-03-01T15:59:05;3.88;;;2.58;;
36709;SDS011;22694;51.040;3.684;2023-03-01T16:01:35;3.25;;;2.55;;
36709;SDS011;22694;51.040;3.684;2023-03-01T16:04:01;3.25;;;2.70;;
36709;SDS011;22694;51.040;3.684;2023-03-01T16:06:26;4.55;;;2.83;;
36709;SDS011;22694;51.040;3.684;2023-03-01T16:08:52;2.92;;;2.42;;
36709;SDS011;22694;51.040;3.684;2023-03-01T16:11:18;3.03;;;2.47;;
36709;SDS011;22694;51.040;3.684;2023-03-01T16:13:45;3.10;;;2.55;;
36709;SDS011;22694;51.040;3.684;2023-03-01T16:16:11;3.30;;;2.83;;
36709;SDS011;22694;51.040;3.684;2023-03-01T16:18:40;4.00;;;2.88;;
36709;SDS011;22694;51.040;3.684;2023-03-01T16:21:18;5.43;;;2.00;;
36709;SDS011;22694;51.040;3.684;2023-03-01T16:23:46;3.25;;;2.80;;
36709;SDS011;22694;51.040;3.684;2023-03-01T16:26:12;2.97;;;2.17;;
36709;SDS011;22694;51.040;3.684;2023-03-01T16:28:38;3.75;;;2.72;;
36709;SDS011;22694;51.040;3.684;2023-03-01T16:31:05;6.13;;;2.50;;
36709;SDS011;22694;51.040;3.684;2023-03-01T16:33:31;3.75;;;3.10;;
36709;SDS011;22694;51.040;3.684;2023-03-01T16:35:58;2.92;;;2.60;;
36709;SDS011;22694;51.040;3.684;2023-03-01T16:38:26;4.68;;;2.20;;
36709;SDS011;22694;51.040;3.684;2023-03-01T16:40:52;3.80;;;2.50;;
36709;SDS011;22694;51.040;3.684;2023-03-01T16:43:18;4.35;;;3.28;;
36709;SDS011;22694;51.040;3.684;2023-03-01T16:45:44;2.67;;;2.45;;
36709;SDS011;22694;51.040;3.684;2023-03-01T16:48:11;3.25;;;2.60;;
36709;SDS011;22694;51.040;3.684;2023-03-01T16:50:37;3.65;;;2.63;;
36709;SDS011;22694;51.040;3.684;2023-03-01T16:53:03;3.45;;;2.63;;
36709;SDS011;22694;51.040;3.684;2023-03-01T16:55:28;3.83;;;2.70;;
36709;SDS011;22694;51.040;3.684;2023-03-01T16:57:54;3.83;;;2.60;;
36709;SDS011;22694;51.040;3.684;2023-03-01T17:00:19;4.70;;;2.50;;
36709;SDS011;22694;51.040;3.684;2023-03-01T17:02:45;3.08;;;2.47;;
36709;SDS011;22694;51.040;3.684;2023-03-01T17:05:11;3.03;;;2.22;;
36709;SDS011;22694;51.040;3.684;2023-03-01T17:07:37;5.20;;;2.50;;
36709;SDS011;22694;51.040;3.684;2023-03-01T17:10:04;4.68;;;2.20;;